TimeEDT,TemperatureF,Dew PointF,Humidity,Sea Level PressureIn,VisibilityMPH,Wind Direction,Wind SpeedMPH,Gust SpeedMPH,PrecipitationIn,Events,Conditions,WindDirDegrees,DateUTC
12:43 AM,71.6,68.0,88,29.77,10.0,Calm,Calm,-,N/A,,Scattered Clouds,0,2013-06-27 04:43:00
12:53 AM,71.1,68.0,90,29.76,10.0,Calm,Calm,-,N/A,,Scattered Clouds,0,2013-06-27 04:53:00
1:21 AM,71.6,68.0,88,29.76,9.0,Calm,Calm,-,0.00,Rain,Light Rain,0,2013-06-27 05:21:00
1:37 AM,71.6,69.8,94,29.78,9.0,WNW,4.6,-,0.01,Rain,Light Rain,290,2013-06-27 05:37:00
1:53 AM,71.1,68.0,90,29.76,9.0,West,5.8,-,0.01,Rain,Light Rain,270,2013-06-27 05:53:00
2:01 AM,71.6,68.0,88,29.76,10.0,WNW,5.8,-,0.00,Rain,Light Rain,290,2013-06-27 06:01:00
2:46 AM,69.8,66.2,88,29.75,10.0,Calm,Calm,-,0.00,,Scattered Clouds,0,2013-06-27 06:46:00
2:53 AM,70.0,66.9,90,29.73,10.0,Calm,Calm,-,0.00,,Scattered Clouds,0,2013-06-27 06:53:00
3:19 AM,69.8,66.2,88,29.75,10.0,Calm,Calm,-,N/A,,Mostly Cloudy,0,2013-06-27 07:19:00
3:53 AM,70.0,66.9,90,29.74,10.0,Calm,Calm,-,N/A,,Overcast,0,2013-06-27 07:53:00
4:18 AM,69.8,66.2,88,29.76,10.0,Calm,Calm,-,N/A,,Overcast,0,2013-06-27 08:18:00
4:53 AM,69.1,66.9,93,29.74,7.0,Calm,Calm,-,N/A,,Mostly Cloudy,0,2013-06-27 08:53:00
5:21 AM,69.8,66.2,88,29.76,10.0,Calm,Calm,-,N/A,,Overcast,0,2013-06-27 09:21:00
5:35 AM,69.8,66.2,88,29.76,10.0,Calm,Calm,-,N/A,,Overcast,0,2013-06-27 09:35:00
5:53 AM,69.1,66.9,93,29.75,10.0,WSW,3.5,-,N/A,,Overcast,250,2013-06-27 09:53:00
6:28 AM,69.8,66.2,88,29.77,9.0,WNW,3.5,-,N/A,,Overcast,290,2013-06-27 10:28:00
6:37 AM,69.8,66.2,88,29.77,2.0,WNW,3.5,-,N/A,,Overcast,300,2013-06-27 10:37:00
6:53 AM,70.0,66.9,90,29.76,2.0,North,4.6,-,N/A,,Overcast,350,2013-06-27 10:53:00
7:31 AM,69.8,68.0,94,29.77,1.0,Calm,Calm,-,N/A,,Overcast,0,2013-06-27 11:31:00
7:53 AM,70.0,68.0,93,29.76,1.0,NNW,4.6,-,N/A,,Overcast,330,2013-06-27 11:53:00
8:53 AM,71.1,68.0,90,29.76,1.0,Calm,Calm,-,N/A,,Overcast,0,2013-06-27 12:53:00
9:00 AM,71.6,68.0,88,29.77,2.0,NNW,3.5,-,N/A,,Overcast,340,2013-06-27 13:00:00
9:09 AM,71.6,68.0,88,29.77,2.0,Calm,Calm,-,N/A,,Overcast,0,2013-06-27 13:09:00
9:33 AM,71.6,68.0,88,29.77,3.0,NW,4.6,-,N/A,,Overcast,320,2013-06-27 13:33:00
9:53 AM,72.0,68.0,87,29.76,8.0,West,4.6,-,N/A,,Mostly Cloudy,280,2013-06-27 13:53:00
10:53 AM,77.0,70.0,79,29.76,10.0,NNW,4.6,-,N/A,,Mostly Cloudy,340,2013-06-27 14:53:00
11:53 AM,78.1,70.0,76,29.76,10.0,West,10.4,-,N/A,,Mostly Cloudy,280,2013-06-27 15:53:00
12:53 PM,81.0,69.1,67,29.75,10.0,NW,6.9,-,N/A,,Scattered Clouds,310,2013-06-27 16:53:00
1:53 PM,78.1,68.0,71,29.75,10.0,WNW,9.2,16.1,N/A,,Scattered Clouds,300,2013-06-27 17:53:00
2:53 PM,84.0,66.9,56,29.73,10.0,WNW,9.2,-,N/A,,Scattered Clouds,290,2013-06-27 18:53:00
3:53 PM,84.0,68.0,58,29.73,10.0,West,11.5,21.9,N/A,,Scattered Clouds,270,2013-06-27 19:53:00
4:53 PM,82.9,69.1,63,29.71,10.0,West,15.0,-,N/A,,Mostly Cloudy,280,2013-06-27 20:53:00
5:53 PM,82.0,66.9,60,29.70,10.0,WNW,16.1,24.2,N/A,,Partly Cloudy,290,2013-06-27 21:53:00
6:53 PM,80.1,68.0,67,29.70,10.0,WNW,8.1,-,N/A,,Partly Cloudy,300,2013-06-27 22:53:00
7:53 PM,79.0,68.0,69,29.70,10.0,NW,5.8,-,N/A,,Scattered Clouds,310,2013-06-27 23:53:00
8:53 PM,77.0,68.0,74,29.70,10.0,NW,6.9,-,N/A,,Partly Cloudy,310,2013-06-28 00:53:00
9:53 PM,75.9,68.0,76,29.68,10.0,NW,4.6,-,N/A,,Scattered Clouds,320,2013-06-28 01:53:00
10:53 PM,75.0,69.1,82,29.69,10.0,NNW,5.8,-,N/A,,Partly Cloudy,340,2013-06-28 02:53:00
11:53 PM,73.0,68.0,84,29.67,10.0,North,6.9,-,N/A,,Clear,350,2013-06-28 03:53:00